createdAt,value
2018-02-13T00:01:53.386Z,2.90
2018-02-13T00:04:20.924Z,2.90
2018-02-13T00:06:48.471Z,2.90
2018-02-13T00:09:15.998Z,2.90
2018-02-13T00:11:43.564Z,2.90
2018-02-13T00:14:11.088Z,2.90
2018-02-13T00:16:38.619Z,2.90
2018-02-13T00:19:06.148Z,2.90
2018-02-13T00:21:34.691Z,2.90
2018-02-13T00:24:02.228Z,2.90
2018-02-13T00:26:29.770Z,2.90
2018-02-13T00:28:57.298Z,2.90
2018-02-13T00:31:24.818Z,2.90
2018-02-13T00:33:53.129Z,2.90
2018-02-13T00:36:20.645Z,2.90
2018-02-13T00:38:48.961Z,2.90
2018-02-13T00:41:16.483Z,2.90
2018-02-13T00:43:44.042Z,2.90
2018-02-13T00:46:11.599Z,2.90
2018-02-13T00:48:39.144Z,2.90
2018-02-13T00:51:06.668Z,2.90
2018-02-13T00:53:34.215Z,2.80
2018-02-13T00:56:01.731Z,2.90
2018-02-13T00:58:29.273Z,2.80
2018-02-13T01:00:56.818Z,2.90
2018-02-13T01:03:24.376Z,2.90
2018-02-13T01:05:51.905Z,2.90
2018-02-13T01:08:20.208Z,2.80
2018-02-13T01:10:47.742Z,2.80
2018-02-13T01:13:16.041Z,2.80
2018-02-13T01:15:43.576Z,2.80
2018-02-13T01:18:11.917Z,2.70
2018-02-13T01:20:39.440Z,2.70
2018-02-13T01:23:06.970Z,2.80
2018-02-13T01:25:35.288Z,2.70
2018-02-13T01:28:02.799Z,2.70
2018-02-13T01:30:30.355Z,2.70
2018-02-13T01:32:57.883Z,2.70
2018-02-13T01:35:25.428Z,2.60
2018-02-13T01:37:52.970Z,2.60
2018-02-13T01:40:20.527Z,2.60
2018-02-13T01:42:48.815Z,2.50
2018-02-13T01:45:17.160Z,2.50
2018-02-13T01:47:44.689Z,2.50
2018-02-13T01:50:24.181Z,2.50
2018-02-13T01:52:52.485Z,2.40
2018-02-13T01:55:20.044Z,2.40
2018-02-13T01:57:47.587Z,2.40
2018-02-13T02:00:15.142Z,2.40
2018-02-13T02:02:43.425Z,2.30
2018-02-13T02:05:11.051Z,2.30
2018-02-13T02:07:38.689Z,2.30
2018-02-13T02:10:06.225Z,2.20
2018-02-13T02:12:33.796Z,2.20
2018-02-13T02:15:01.317Z,2.20
2018-02-13T02:17:28.877Z,2.20
2018-02-13T02:19:57.190Z,2.10
2018-02-13T02:22:24.755Z,2.10
2018-02-13T02:24:52.276Z,2.10
2018-02-13T02:27:20.598Z,2.00
2018-02-13T02:29:48.127Z,2.00
2018-02-13T02:32:15.673Z,1.90
2018-02-13T02:34:43.997Z,1.90
2018-02-13T02:37:11.553Z,1.80
2018-02-13T02:39:39.084Z,1.80
2018-02-13T02:42:06.620Z,1.80
2018-02-13T02:44:34.161Z,1.80
2018-02-13T02:47:01.740Z,1.70
2018-02-13T02:49:29.269Z,1.70
2018-02-13T02:51:56.861Z,1.70
2018-02-13T02:54:24.385Z,1.60
2018-02-13T02:56:51.936Z,1.60
2018-02-13T02:59:19.500Z,1.60
2018-02-13T03:01:47.796Z,1.50
2018-02-13T03:04:15.356Z,1.50
2018-02-13T03:06:42.928Z,1.50
2018-02-13T03:09:10.486Z,1.40
2018-02-13T03:11:38.013Z,1.40
2018-02-13T03:14:05.557Z,1.30
2018-02-13T03:16:33.100Z,1.30
2018-02-13T03:19:01.423Z,1.20
2018-02-13T03:21:28.955Z,1.20
2018-02-13T03:23:56.587Z,1.20
2018-02-13T03:26:24.115Z,1.20
2018-02-13T03:28:51.668Z,1.20
2018-02-13T03:31:19.192Z,1.10
2018-02-13T03:33:47.494Z,1.10
2018-02-13T03:36:15.030Z,1.10
2018-02-13T03:38:42.596Z,1.10
2018-02-13T03:41:10.131Z,1.00
2018-02-13T03:43:48.467Z,1.00
2018-02-13T03:46:19.852Z,1.00
2018-02-13T03:48:47.379Z,0.90
2018-02-13T03:51:14.931Z,0.90
2018-02-13T03:53:42.464Z,0.90
2018-02-13T03:56:10.015Z,0.90
2018-02-13T03:58:37.553Z,0.90
2018-02-13T04:01:05.094Z,0.90
2018-02-13T04:03:32.625Z,0.80
2018-02-13T04:06:00.943Z,0.80
2018-02-13T04:08:28.484Z,0.80
2018-02-13T04:10:56.056Z,0.80
2018-02-13T04:13:23.583Z,0.80
2018-02-13T04:15:51.901Z,0.70
2018-02-13T04:18:19.436Z,0.70
2018-02-13T04:20:46.991Z,0.70
2018-02-13T04:23:15.308Z,0.70
2018-02-13T04:25:42.888Z,0.60
2018-02-13T04:28:10.426Z,0.60
2018-02-13T04:30:37.965Z,0.60
2018-02-13T04:33:05.536Z,0.60
2018-02-13T04:35:33.065Z,0.60
2018-02-13T04:38:01.376Z,0.60
2018-02-13T04:40:28.931Z,0.50
2018-02-13T04:42:56.475Z,0.50
2018-02-13T04:45:24.800Z,0.50
2018-02-13T04:47:52.361Z,0.50
2018-02-13T04:50:19.904Z,0.50
2018-02-13T04:52:48.227Z,0.40
2018-02-13T04:55:15.757Z,0.40
2018-02-13T04:57:43.296Z,0.40
2018-02-13T05:00:10.827Z,0.40
2018-02-13T05:02:39.128Z,0.40
2018-02-13T05:05:06.664Z,0.30
2018-02-13T05:07:34.979Z,0.30
2018-02-13T05:10:02.504Z,0.30
2018-02-13T05:12:30.818Z,0.30
2018-02-13T05:14:58.348Z,0.30
2018-02-13T05:17:26.689Z,0.20
2018-02-13T05:19:54.219Z,0.20
2018-02-13T05:22:21.780Z,0.20
2018-02-13T05:24:49.333Z,0.20
2018-02-13T05:27:16.848Z,0.20
2018-02-13T05:29:49.885Z,0.20
2018-02-13T05:32:17.445Z,0.20
2018-02-13T05:34:45.005Z,0.10
2018-02-13T05:37:12.538Z,0.10
2018-02-13T05:39:40.860Z,0.10
2018-02-13T05:42:08.406Z,0.10
2018-02-13T05:44:35.954Z,0.10
2018-02-13T05:47:03.502Z,0.10
2018-02-13T05:49:31.812Z,0.10
2018-02-13T05:51:59.336Z,0.00
2018-02-13T05:54:27.648Z,0.10
2018-02-13T05:56:55.165Z,0.00
2018-02-13T05:59:23.479Z,0.00
2018-02-13T06:01:51.073Z,0.00
2018-02-13T06:04:18.591Z,0.00
2018-02-13T06:06:46.131Z,0.00
2018-02-13T06:09:13.691Z,0.00
2018-02-13T06:11:41.993Z,0.00
2018-02-13T06:14:09.581Z,0.00
2018-02-13T06:16:37.117Z,0.00
2018-02-13T06:19:04.692Z,0.00
2018-02-13T06:21:32.253Z,0.00
2018-02-13T06:24:11.084Z,0.00
2018-02-13T06:26:42.188Z,0.00
2018-02-13T06:29:10.522Z,0.00
2018-02-13T06:31:38.100Z,-0.10
2018-02-13T06:34:05.622Z,0.00
2018-02-13T06:36:33.176Z,0.00
2018-02-13T06:39:00.744Z,0.00
2018-02-13T06:41:28.273Z,0.00
2018-02-13T06:43:55.838Z,0.00
2018-02-13T06:46:23.395Z,0.00
2018-02-13T06:48:51.718Z,0.00
2018-02-13T06:51:19.275Z,0.00
2018-02-13T06:53:46.812Z,0.10
2018-02-13T06:56:14.362Z,0.10
2018-02-13T06:58:41.914Z,0.10
2018-02-13T07:01:10.228Z,0.10
2018-02-13T07:03:37.762Z,0.10
2018-02-13T07:06:05.316Z,0.10
2018-02-13T07:08:32.852Z,0.20
2018-02-13T07:11:00.408Z,0.20
2018-02-13T07:13:28.707Z,0.20
2018-02-13T07:15:57.774Z,0.20
2018-02-13T07:18:25.300Z,0.20
2018-02-13T07:20:52.844Z,0.20
2018-02-13T07:23:20.400Z,0.20
2018-02-13T07:25:47.962Z,0.20
2018-02-13T07:28:15.500Z,0.20
2018-02-13T07:30:43.808Z,0.20
2018-02-13T07:33:11.379Z,0.20
2018-02-13T07:35:38.912Z,0.20
2018-02-13T07:38:07.233Z,0.20
2018-02-13T07:40:34.777Z,0.20
2018-02-13T07:43:02.324Z,0.30
2018-02-13T07:45:29.862Z,0.30
2018-02-13T07:50:51.630Z,0.30
2018-02-13T07:53:19.196Z,0.30
2018-02-13T07:55:46.742Z,0.30
2018-02-13T07:58:14.316Z,0.30
2018-02-13T08:00:41.855Z,0.30
2018-02-13T08:03:10.221Z,0.40
2018-02-13T08:05:38.523Z,0.40
2018-02-13T08:08:06.077Z,0.40
2018-02-13T08:10:34.363Z,0.50
2018-02-13T08:13:02.884Z,0.40
2018-02-13T08:15:30.464Z,0.50
2018-02-13T08:17:58.007Z,0.50
2018-02-13T08:20:25.562Z,0.60
2018-02-13T08:22:53.087Z,0.60
2018-02-13T08:25:20.649Z,0.60
2018-02-13T08:27:48.200Z,0.70
2018-02-13T08:30:16.537Z,0.80
2018-02-13T08:32:44.087Z,0.70
2018-02-13T08:35:11.650Z,0.80
2018-02-13T08:37:39.219Z,0.80
2018-02-13T08:40:06.783Z,0.90
2018-02-13T08:42:34.328Z,0.90
2018-02-13T08:45:01.942Z,1.00
2018-02-13T08:47:29.427Z,1.00
2018-02-13T08:49:56.998Z,1.10
2018-02-13T08:52:24.541Z,1.10
2018-02-13T08:54:52.097Z,1.20
2018-02-13T08:57:19.632Z,1.30
2018-02-13T08:59:47.944Z,1.40
2018-02-13T09:02:15.488Z,1.40
2018-02-13T09:04:43.809Z,1.60
2018-02-13T09:07:11.337Z,1.50
2018-02-13T09:09:38.860Z,1.60
2018-02-13T09:12:06.423Z,1.70
2018-02-13T09:14:33.951Z,1.80
2018-02-13T09:17:01.500Z,1.90
2018-02-13T09:19:32.629Z,2.00
2018-02-13T09:22:00.195Z,2.00
2018-02-13T09:24:27.725Z,2.10
2018-02-13T09:26:56.052Z,2.20
2018-02-13T09:29:23.589Z,2.20
2018-02-13T09:31:51.145Z,2.30
2018-02-13T09:34:18.678Z,2.40
2018-02-13T09:36:46.993Z,2.50
2018-02-13T09:39:14.515Z,2.40
2018-02-13T09:41:42.084Z,2.50
2018-02-13T09:44:10.372Z,2.60
2018-02-13T09:46:37.956Z,2.50
2018-02-13T09:49:07.437Z,2.60
2018-02-13T09:51:35.748Z,2.70
2018-02-13T09:54:03.291Z,2.70
2018-02-13T09:56:30.857Z,2.80
2018-02-13T09:59:18.040Z,2.90
2018-02-13T10:01:45.574Z,3.00
2018-02-13T10:04:13.099Z,3.00
2018-02-13T10:06:40.684Z,3.10
2018-02-13T10:09:08.210Z,3.10
2018-02-13T10:11:35.731Z,3.20
2018-02-13T10:14:03.284Z,3.20
2018-02-13T10:16:30.804Z,3.20
2018-02-13T10:18:58.353Z,3.30
2018-02-13T10:21:25.908Z,3.30
2018-02-13T10:23:53.444Z,3.30
2018-02-13T10:26:21.751Z,3.40
2018-02-13T10:28:49.282Z,3.40
2018-02-13T10:31:16.816Z,3.50
2018-02-13T10:33:44.387Z,3.50
2018-02-13T10:36:11.928Z,3.60
2018-02-13T10:38:39.469Z,3.60
2018-02-13T10:41:07.005Z,3.70
2018-02-13T10:43:34.558Z,3.80
2018-02-13T10:46:02.182Z,3.80
2018-02-13T10:48:29.733Z,3.90
2018-02-13T10:50:57.323Z,4.00
2018-02-13T10:53:24.855Z,4.00
2018-02-13T10:55:52.410Z,4.00
2018-02-13T10:58:19.947Z,4.10
2018-02-13T11:00:53.110Z,4.10
2018-02-13T11:03:21.435Z,4.20
2018-02-13T11:05:49.031Z,4.10
2018-02-13T11:08:20.267Z,4.20
2018-02-13T11:10:47.796Z,4.20
2018-02-13T11:13:15.315Z,4.20
2018-02-13T11:15:43.636Z,4.30
2018-02-13T11:18:11.173Z,4.20
2018-02-13T11:20:38.708Z,4.30
2018-02-13T11:23:06.238Z,4.30
2018-02-13T11:25:33.780Z,4.30
2018-02-13T11:28:01.308Z,4.40
2018-02-13T11:30:29.603Z,4.50
2018-02-13T11:32:57.129Z,4.50
2018-02-13T11:35:24.677Z,4.50
2018-02-13T11:37:52.203Z,4.50
2018-02-13T11:40:26.885Z,4.60
2018-02-13T11:42:55.210Z,4.70
2018-02-13T11:45:24.708Z,4.70
2018-02-13T11:47:53.011Z,4.80
2018-02-13T11:50:20.571Z,4.80
2018-02-13T11:52:48.104Z,4.90
2018-02-13T11:55:15.713Z,4.90
2018-02-13T11:57:43.244Z,5.00
2018-02-13T12:00:10.808Z,5.00
2018-02-13T12:02:38.347Z,5.00
2018-02-13T12:05:05.885Z,5.10
2018-02-13T12:07:33.461Z,5.10
2018-02-13T12:10:00.992Z,5.10
2018-02-13T12:12:29.335Z,5.10
2018-02-13T12:14:56.864Z,5.10
2018-02-13T12:17:24.398Z,5.10
2018-02-13T12:19:52.695Z,5.20
2018-02-13T12:22:20.239Z,5.10
2018-02-13T12:24:48.535Z,5.20
2018-02-13T12:27:16.067Z,5.20
2018-02-13T12:29:44.368Z,5.40
2018-02-13T12:32:11.978Z,5.30
2018-02-13T12:34:39.505Z,5.40
2018-02-13T12:37:07.045Z,5.50
2018-02-13T12:39:34.583Z,5.50
2018-02-13T12:42:02.889Z,5.60
2018-02-13T12:44:30.432Z,5.60
2018-02-13T12:46:58.748Z,5.70
2018-02-13T12:49:26.295Z,5.70
2018-02-13T12:51:53.827Z,5.70
2018-02-13T12:54:21.457Z,5.80
2018-02-13T12:56:48.964Z,5.80
2018-02-13T12:59:16.964Z,5.90
2018-02-13T13:01:44.495Z,5.90
2018-02-13T13:04:12.725Z,5.90
2018-02-13T13:06:40.275Z,5.90
2018-02-13T13:09:07.818Z,5.90
2018-02-13T13:11:35.340Z,5.90
2018-02-13T13:14:02.905Z,5.90
2018-02-13T13:16:30.428Z,6.00
2018-02-13T13:18:57.996Z,6.00
2018-02-13T13:21:25.528Z,6.00
2018-02-13T13:23:56.468Z,6.00
2018-02-13T13:26:24.027Z,6.10
2018-02-13T13:28:51.569Z,6.10
2018-02-13T13:31:19.118Z,6.10
2018-02-13T13:33:46.668Z,6.20
2018-02-13T13:36:14.967Z,6.20
2018-02-13T13:38:42.484Z,6.20
2018-02-13T13:41:10.024Z,6.20
2018-02-13T13:43:37.611Z,6.20
2018-02-13T13:46:05.148Z,6.20
2018-02-13T13:48:32.673Z,6.20
2018-02-13T13:51:00.227Z,6.20
2018-02-13T13:53:27.744Z,6.20
2018-02-13T13:55:55.289Z,6.20
2018-02-13T13:58:22.819Z,6.10
2018-02-13T14:00:50.370Z,6.10
2018-02-13T14:03:18.792Z,6.10
2018-02-13T14:05:46.326Z,6.10
2018-02-13T14:08:13.914Z,6.00
2018-02-13T14:10:41.456Z,5.90
2018-02-13T14:13:11.804Z,5.90
2018-02-13T14:15:39.357Z,5.90
2018-02-13T14:18:06.891Z,5.80
2018-02-13T14:20:34.438Z,5.80
2018-02-13T14:23:06.096Z,5.70
2018-02-13T14:25:33.661Z,5.70
2018-02-13T14:28:01.231Z,5.60
2018-02-13T14:30:28.860Z,5.60
2018-02-13T14:32:57.183Z,5.50
2018-02-13T14:35:24.696Z,5.50
2018-02-13T14:37:53.045Z,5.50
2018-02-13T14:40:33.327Z,5.50
2018-02-13T14:43:01.628Z,5.40
2018-02-13T14:45:29.159Z,5.40
2018-02-13T14:47:57.485Z,5.40
2018-02-13T14:50:25.017Z,5.40
2018-02-13T14:52:53.324Z,5.30
2018-02-13T14:55:20.844Z,5.30
2018-02-13T14:57:49.164Z,5.30
2018-02-13T15:00:16.694Z,5.30
2018-02-13T15:02:45.019Z,5.20
2018-02-13T15:05:12.569Z,5.20
2018-02-13T15:07:40.121Z,5.20
2018-02-13T15:10:07.666Z,5.20
2018-02-13T15:12:35.203Z,5.10
2018-02-13T15:15:02.739Z,5.10
2018-02-13T15:17:41.416Z,5.10
2018-02-13T15:20:08.955Z,5.00
2018-02-13T15:22:37.232Z,4.90
2018-02-13T15:25:05.559Z,4.90
2018-02-13T15:27:33.106Z,4.90
2018-02-13T15:30:00.672Z,4.90
2018-02-13T15:32:36.372Z,4.80
2018-02-13T15:35:22.967Z,4.80
2018-02-13T15:37:51.497Z,4.70
2018-02-13T15:40:19.098Z,4.70
2018-02-13T15:42:47.619Z,4.60
2018-02-13T15:45:15.164Z,4.60
2018-02-13T15:47:42.729Z,4.60
2018-02-13T15:50:12.058Z,4.50
2018-02-13T15:52:40.536Z,4.60
2018-02-13T15:55:08.909Z,4.50
2018-02-13T15:57:36.451Z,4.50
2018-02-13T16:00:04.002Z,4.50
2018-02-13T16:02:31.619Z,4.50
2018-02-13T16:04:59.176Z,4.40
2018-02-13T16:07:26.716Z,4.40
2018-02-13T16:09:55.032Z,4.30
2018-02-13T16:12:22.743Z,4.30
2018-02-13T16:14:50.300Z,4.30
2018-02-13T16:17:17.908Z,4.30
2018-02-13T16:19:45.428Z,4.20
2018-02-13T16:22:13.740Z,4.20
2018-02-13T16:24:41.265Z,4.20
2018-02-13T16:27:09.570Z,4.10
2018-02-13T16:29:37.107Z,4.10
2018-02-13T16:32:05.425Z,4.00
2018-02-13T16:34:32.946Z,4.00
2018-02-13T16:37:01.262Z,3.90
2018-02-13T16:39:28.842Z,3.90
2018-02-13T16:41:56.395Z,3.90
2018-02-13T16:44:23.943Z,3.90
2018-02-13T16:46:51.507Z,3.80
2018-02-13T16:49:19.027Z,3.80
2018-02-13T16:51:47.384Z,3.70
2018-02-13T16:54:14.909Z,3.70
2018-02-13T16:56:42.438Z,3.70
2018-02-13T16:59:10.734Z,3.60
2018-02-13T17:01:38.286Z,3.60
2018-02-13T17:04:05.823Z,3.60
2018-02-13T17:06:34.124Z,3.50
2018-02-13T17:09:01.653Z,3.50
2018-02-13T17:11:29.980Z,3.40
2018-02-13T17:13:57.506Z,3.40
2018-02-13T17:16:25.800Z,3.30
2018-02-13T17:18:53.348Z,3.30
2018-02-13T17:21:21.639Z,3.20
2018-02-13T17:23:49.180Z,3.20
2018-02-13T17:26:17.478Z,3.20
2018-02-13T17:28:45.097Z,3.10
2018-02-13T17:31:12.625Z,3.10
2018-02-13T17:33:40.175Z,3.10
2018-02-13T17:36:07.743Z,3.10
2018-02-13T17:38:37.253Z,3.00
2018-02-13T17:41:04.788Z,3.00
2018-02-13T17:43:32.343Z,3.00
2018-02-13T17:45:59.867Z,3.00
2018-02-13T17:48:30.592Z,2.90
2018-02-13T17:50:58.116Z,2.90
2018-02-13T17:53:26.449Z,2.80
2018-02-13T17:55:53.970Z,2.80
2018-02-13T17:58:21.537Z,2.80
2018-02-13T18:00:49.223Z,2.80
2018-02-13T18:03:16.992Z,2.80
2018-02-13T18:05:44.655Z,2.80
2018-02-13T18:08:12.258Z,2.70
2018-02-13T18:10:44.540Z,2.70
2018-02-13T18:13:12.099Z,2.70
2018-02-13T18:15:39.636Z,2.70
2018-02-13T18:18:07.917Z,2.60
2018-02-13T18:20:37.556Z,2.60
2018-02-13T18:23:05.084Z,2.60
2018-02-13T18:25:33.406Z,2.60
2018-02-13T18:28:01.703Z,2.50
2018-02-13T18:30:29.264Z,2.60
2018-02-13T18:32:56.792Z,2.50
2018-02-13T18:35:24.410Z,2.50
2018-02-13T18:37:52.787Z,2.50
2018-02-13T18:40:20.345Z,2.50
2018-02-13T18:42:48.661Z,2.40
2018-02-13T18:45:16.212Z,2.40
2018-02-13T18:47:43.779Z,2.40
2018-02-13T18:50:11.319Z,2.40
2018-02-13T18:55:07.173Z,2.40
2018-02-13T18:57:34.743Z,2.30
2018-02-13T19:00:06.689Z,2.30
2018-02-13T19:02:34.240Z,2.30
2018-02-13T19:05:02.543Z,2.30
2018-02-13T19:07:30.100Z,2.30
2018-02-13T19:09:57.646Z,2.30
2018-02-13T19:12:25.960Z,2.20
2018-02-13T19:14:53.982Z,2.20
2018-02-13T19:17:22.378Z,2.20
2018-02-13T19:19:50.873Z,2.20
2018-02-13T19:22:18.457Z,2.20
2018-02-13T19:24:46.520Z,2.20
2018-02-13T19:27:14.071Z,2.20
2018-02-13T19:29:41.620Z,2.10
2018-02-13T19:32:09.929Z,2.10
2018-02-13T19:34:37.464Z,2.10
2018-02-13T19:37:05.048Z,2.10
2018-02-13T19:39:32.569Z,2.10
2018-02-13T19:42:00.896Z,2.00
2018-02-13T19:44:28.478Z,2.00
2018-02-13T19:46:56.136Z,2.00
2018-02-13T19:49:23.809Z,2.00
2018-02-13T19:51:51.335Z,2.00
2018-02-13T19:54:18.875Z,2.00
2018-02-13T19:56:53.291Z,2.00
2018-02-13T19:59:21.585Z,1.90
2018-02-13T20:01:51.104Z,1.90
2018-02-13T20:04:18.640Z,1.90
2018-02-13T20:06:46.221Z,1.90
2018-02-13T20:09:13.769Z,1.90
2018-02-13T20:11:41.301Z,1.90
2018-02-13T20:14:09.636Z,1.80
2018-02-13T20:16:37.160Z,1.80
2018-02-13T20:19:04.748Z,1.80
2018-02-13T20:21:32.288Z,1.80
2018-02-13T20:23:59.843Z,1.80
2018-02-13T20:26:27.411Z,1.80
2018-02-13T20:28:54.970Z,1.70
2018-02-13T20:31:22.497Z,1.70
2018-02-13T20:33:50.044Z,1.70
2018-02-13T20:36:17.581Z,1.70
2018-02-13T20:38:45.131Z,1.70
2018-02-13T20:41:12.660Z,1.60
2018-02-13T20:43:40.213Z,1.60
2018-02-13T20:46:08.520Z,1.60
2018-02-13T20:48:36.109Z,1.60
2018-02-13T20:51:03.636Z,1.60
2018-02-13T20:53:31.209Z,1.60
2018-02-13T20:55:59.492Z,1.50
2018-02-13T20:58:27.047Z,1.50
2018-02-13T21:00:54.596Z,1.50
2018-02-13T21:03:22.157Z,1.50
2018-02-13T21:05:57.680Z,1.50
2018-02-13T21:08:25.995Z,1.40
2018-02-13T21:10:53.543Z,1.40
2018-02-13T21:13:21.116Z,1.40
2018-02-13T21:15:48.665Z,1.40
2018-02-13T21:18:16.222Z,1.40
2018-02-13T21:20:43.766Z,1.40
2018-02-13T21:23:12.099Z,1.40
2018-02-13T21:25:39.638Z,1.40
2018-02-13T21:28:07.930Z,1.40
2018-02-13T21:30:35.505Z,1.40
2018-02-13T21:33:03.063Z,1.30
2018-02-13T21:35:30.612Z,1.30
2018-02-13T21:37:58.144Z,1.30
2018-02-13T21:40:25.690Z,1.30
2018-02-13T21:43:03.716Z,1.30
2018-02-13T21:45:48.061Z,1.30
2018-02-13T21:48:15.608Z,1.20
2018-02-13T21:50:43.159Z,1.20
2018-02-13T21:53:11.500Z,1.20
2018-02-13T21:55:40.064Z,1.20
2018-02-13T21:58:07.588Z,1.10
2018-02-13T22:00:35.955Z,1.10
2018-02-13T22:03:03.501Z,1.10
2018-02-13T22:05:31.052Z,1.10
2018-02-13T22:07:58.571Z,1.10
2018-02-13T22:10:26.131Z,1.10
2018-02-13T22:12:53.662Z,1.10
2018-02-13T22:15:22.008Z,1.10
2018-02-13T22:17:49.547Z,1.00
2018-02-13T22:20:17.078Z,1.00
2018-02-13T22:22:44.653Z,1.00
2018-02-13T22:25:12.192Z,1.00
2018-02-13T22:27:40.525Z,1.00
2018-02-13T22:30:08.056Z,1.00
2018-02-13T22:32:35.610Z,1.00
2018-02-13T22:35:03.184Z,0.90
2018-02-13T22:37:30.735Z,0.90
2018-02-13T22:39:58.288Z,0.90
2018-02-13T22:42:25.853Z,0.90
2018-02-13T22:44:53.415Z,0.90
2018-02-13T22:47:20.984Z,0.90
2018-02-13T22:49:48.520Z,0.90
2018-02-13T22:52:16.877Z,0.80
2018-02-13T22:54:44.403Z,0.80
2018-02-13T22:57:11.962Z,0.80
2018-02-13T22:59:39.489Z,0.80
2018-02-13T23:02:07.102Z,0.80
2018-02-13T23:04:34.674Z,0.70
2018-02-13T23:07:02.980Z,0.70
2018-02-13T23:09:31.288Z,0.70
2018-02-13T23:11:58.818Z,0.70
2018-02-13T23:14:26.403Z,0.70
2018-02-13T23:16:53.951Z,0.70
2018-02-13T23:19:21.501Z,0.70
2018-02-13T23:21:49.800Z,0.60
2018-02-13T23:24:17.368Z,0.60
2018-02-13T23:26:44.891Z,0.60
2018-02-13T23:29:12.438Z,0.60
2018-02-13T23:31:39.969Z,0.60
2018-02-13T23:34:07.519Z,0.60
2018-02-13T23:36:35.061Z,0.60
2018-02-13T23:39:02.633Z,0.50
2018-02-13T23:41:30.167Z,0.50
2018-02-13T23:43:57.716Z,0.50
2018-02-13T23:46:27.030Z,0.50
2018-02-13T23:48:55.359Z,0.50
2018-02-13T23:51:22.895Z,0.50
2018-02-13T23:53:50.445Z,0.50
2018-02-13T23:56:17.992Z,0.40
2018-02-13T23:58:45.573Z,0.40
